sensor_id;sensor_type;location;lat;lon;timestamp;P1;durP1;ratioP1;P2;durP2;ratioP2
21587;SDS011;10956;48.878;13.316;2022-07-17T00:01:21;1.80;;;1.30;;
21587;SDS011;10956;48.878;13.316;2022-07-17T00:03:47;1.67;;;1.20;;
21587;SDS011;10956;48.878;13.316;2022-07-17T00:06:13;1.30;;;1.20;;
21587;SDS011;10956;48.878;13.316;2022-07-17T00:08:39;1.30;;;1.00;;
21587;SDS011;10956;48.878;13.316;2022-07-17T00:11:04;1.87;;;1.30;;
21587;SDS011;10956;48.878;13.316;2022-07-17T00:13:30;1.33;;;1.20;;
21587;SDS011;10956;48.878;13.316;2022-07-17T00:15:55;3.87;;;1.30;;
21587;SDS011;10956;48.878;13.316;2022-07-17T00:18:21;1.53;;;1.00;;
21587;SDS011;10956;48.878;13.316;2022-07-17T00:20:46;1.33;;;1.23;;
21587;SDS011;10956;48.878;13.316;2022-07-17T00:23:12;1.93;;;1.30;;
21587;SDS011;10956;48.878;13.316;2022-07-17T00:25:37;1.20;;;1.10;;
21587;SDS011;10956;48.878;13.316;2022-07-17T00:28:04;1.40;;;1.03;;
21587;SDS011;10956;48.878;13.316;2022-07-17T00:30:29;2.10;;;1.10;;
21587;SDS011;10956;48.878;13.316;2022-07-17T00:32:55;1.47;;;1.10;;
21587;SDS011;10956;48.878;13.316;2022-07-17T00:35:20;1.20;;;1.10;;
21587;SDS011;10956;48.878;13.316;2022-07-17T00:37:47;1.70;;;1.20;;
21587;SDS011;10956;48.878;13.316;2022-07-17T00:40:16;1.23;;;1.13;;
21587;SDS011;10956;48.878;13.316;2022-07-17T00:42:46;1.00;;;1.00;;
21587;SDS011;10956;48.878;13.316;2022-07-17T00:45:12;1.20;;;1.10;;
21587;SDS011;10956;48.878;13.316;2022-07-17T00:47:59;1.20;;;1.10;;
21587;SDS011;10956;48.878;13.316;2022-07-17T00:50:29;1.23;;;1.00;;
21587;SDS011;10956;48.878;13.316;2022-07-17T00:52:59;1.90;;;1.27;;
21587;SDS011;10956;48.878;13.316;2022-07-17T00:55:25;1.07;;;1.00;;
21587;SDS011;10956;48.878;13.316;2022-07-17T00:57:51;1.33;;;1.23;;
21587;SDS011;10956;48.878;13.316;2022-07-17T01:00:19;2.23;;;1.20;;
21587;SDS011;10956;48.878;13.316;2022-07-17T01:02:49;3.23;;;1.40;;
21587;SDS011;10956;48.878;13.316;2022-07-17T01:05:16;1.30;;;1.20;;
21587;SDS011;10956;48.878;13.316;2022-07-17T01:07:43;1.57;;;1.37;;
21587;SDS011;10956;48.878;13.316;2022-07-17T01:10:09;1.57;;;1.33;;
21587;SDS011;10956;48.878;13.316;2022-07-17T01:12:35;1.77;;;1.50;;
21587;SDS011;10956;48.878;13.316;2022-07-17T01:15:02;1.93;;;1.30;;
21587;SDS011;10956;48.878;13.316;2022-07-17T01:17:28;1.00;;;1.00;;
21587;SDS011;10956;48.878;13.316;2022-07-17T01:19:54;3.70;;;1.37;;
21587;SDS011;10956;48.878;13.316;2022-07-17T01:22:20;1.53;;;1.03;;
21587;SDS011;10956;48.878;13.316;2022-07-17T01:24:45;2.60;;;1.03;;
21587;SDS011;10956;48.878;13.316;2022-07-17T01:27:11;1.53;;;1.00;;
21587;SDS011;10956;48.878;13.316;2022-07-17T01:29:37;1.20;;;1.10;;
21587;SDS011;10956;48.878;13.316;2022-07-17T01:32:03;0.80;;;0.80;;
21587;SDS011;10956;48.878;13.316;2022-07-17T01:34:29;1.50;;;1.37;;
21587;SDS011;10956;48.878;13.316;2022-07-17T01:36:54;1.97;;;1.10;;
21587;SDS011;10956;48.878;13.316;2022-07-17T01:39:20;1.20;;;1.10;;
21587;SDS011;10956;48.878;13.316;2022-07-17T01:42:08;1.20;;;1.03;;
21587;SDS011;10956;48.878;13.316;2022-07-17T01:44:34;1.43;;;1.10;;
21587;SDS011;10956;48.878;13.316;2022-07-17T01:47:00;1.13;;;1.03;;
21587;SDS011;10956;48.878;13.316;2022-07-17T01:49:26;1.30;;;1.20;;
21587;SDS011;10956;48.878;13.316;2022-07-17T01:51:51;1.23;;;0.90;;
21587;SDS011;10956;48.878;13.316;2022-07-17T01:54:17;1.40;;;0.90;;
21587;SDS011;10956;48.878;13.316;2022-07-17T01:56:42;1.10;;;1.00;;
21587;SDS011;10956;48.878;13.316;2022-07-17T01:59:07;1.87;;;1.37;;
21587;SDS011;10956;48.878;13.316;2022-07-17T02:01:33;1.77;;;1.20;;
21587;SDS011;10956;48.878;13.316;2022-07-17T02:03:58;1.97;;;1.13;;
21587;SDS011;10956;48.878;13.316;2022-07-17T02:06:24;1.40;;;1.10;;
21587;SDS011;10956;48.878;13.316;2022-07-17T02:08:49;1.10;;;1.00;;
21587;SDS011;10956;48.878;13.316;2022-07-17T02:11:16;1.13;;;1.03;;
21587;SDS011;10956;48.878;13.316;2022-07-17T02:13:42;1.13;;;1.00;;
21587;SDS011;10956;48.878;13.316;2022-07-17T02:16:08;1.03;;;0.93;;
21587;SDS011;10956;48.878;13.316;2022-07-17T02:18:34;1.30;;;1.10;;
21587;SDS011;10956;48.878;13.316;2022-07-17T02:21:00;1.00;;;1.00;;
21587;SDS011;10956;48.878;13.316;2022-07-17T02:23:25;2.27;;;1.17;;
21587;SDS011;10956;48.878;13.316;2022-07-17T02:25:51;1.00;;;1.00;;
21587;SDS011;10956;48.878;13.316;2022-07-17T02:28:16;1.20;;;1.10;;
21587;SDS011;10956;48.878;13.316;2022-07-17T02:30:42;1.30;;;1.20;;
21587;SDS011;10956;48.878;13.316;2022-07-17T02:33:07;1.13;;;1.03;;
21587;SDS011;10956;48.878;13.316;2022-07-17T02:35:33;2.40;;;1.17;;
21587;SDS011;10956;48.878;13.316;2022-07-17T02:37:59;2.53;;;1.23;;
21587;SDS011;10956;48.878;13.316;2022-07-17T02:40:24;1.23;;;1.20;;
21587;SDS011;10956;48.878;13.316;2022-07-17T02:42:50;1.20;;;1.10;;
21587;SDS011;10956;48.878;13.316;2022-07-17T02:45:15;1.20;;;1.10;;
21587;SDS011;10956;48.878;13.316;2022-07-17T02:47:41;1.50;;;1.33;;
21587;SDS011;10956;48.878;13.316;2022-07-17T02:50:07;1.30;;;1.20;;
21587;SDS011;10956;48.878;13.316;2022-07-17T02:52:34;1.17;;;1.07;;
21587;SDS011;10956;48.878;13.316;2022-07-17T02:55:00;1.30;;;1.20;;
21587;SDS011;10956;48.878;13.316;2022-07-17T02:57:26;1.23;;;1.13;;
21587;SDS011;10956;48.878;13.316;2022-07-17T02:59:52;1.53;;;1.40;;
21587;SDS011;10956;48.878;13.316;2022-07-17T03:02:17;1.50;;;1.20;;
21587;SDS011;10956;48.878;13.316;2022-07-17T03:04:43;1.73;;;1.50;;
21587;SDS011;10956;48.878;13.316;2022-07-17T03:07:08;1.40;;;1.30;;
21587;SDS011;10956;48.878;13.316;2022-07-17T03:09:34;1.10;;;1.00;;
21587;SDS011;10956;48.878;13.316;2022-07-17T03:11:59;1.43;;;1.23;;
21587;SDS011;10956;48.878;13.316;2022-07-17T03:14:24;1.13;;;1.03;;
21587;SDS011;10956;48.878;13.316;2022-07-17T03:16:50;1.20;;;1.10;;
21587;SDS011;10956;48.878;13.316;2022-07-17T03:19:15;1.33;;;1.23;;
21587;SDS011;10956;48.878;13.316;2022-07-17T03:21:41;1.33;;;1.13;;
21587;SDS011;10956;48.878;13.316;2022-07-17T03:24:06;2.33;;;1.43;;
21587;SDS011;10956;48.878;13.316;2022-07-17T03:26:32;4.40;;;1.50;;
21587;SDS011;10956;48.878;13.316;2022-07-17T03:28:57;1.50;;;1.40;;
21587;SDS011;10956;48.878;13.316;2022-07-17T03:31:23;1.57;;;1.40;;
21587;SDS011;10956;48.878;13.316;2022-07-17T03:33:48;1.37;;;1.20;;
21587;SDS011;10956;48.878;13.316;2022-07-17T03:36:14;1.30;;;1.20;;
21587;SDS011;10956;48.878;13.316;2022-07-17T03:38:39;1.30;;;1.20;;
21587;SDS011;10956;48.878;13.316;2022-07-17T03:41:04;1.50;;;1.40;;
21587;SDS011;10956;48.878;13.316;2022-07-17T03:43:30;1.63;;;1.40;;
21587;SDS011;10956;48.878;13.316;2022-07-17T03:45:55;1.83;;;1.20;;
21587;SDS011;10956;48.878;13.316;2022-07-17T03:48:21;2.30;;;1.50;;
21587;SDS011;10956;48.878;13.316;2022-07-17T03:50:46;1.40;;;1.30;;
21587;SDS011;10956;48.878;13.316;2022-07-17T03:53:12;1.40;;;1.30;;
21587;SDS011;10956;48.878;13.316;2022-07-17T03:55:37;1.70;;;1.23;;
21587;SDS011;10956;48.878;13.316;2022-07-17T03:58:03;2.00;;;1.23;;
21587;SDS011;10956;48.878;13.316;2022-07-17T04:00:28;2.07;;;1.10;;
21587;SDS011;10956;48.878;13.316;2022-07-17T04:02:53;1.73;;;1.53;;
21587;SDS011;10956;48.878;13.316;2022-07-17T04:05:19;4.03;;;1.50;;
21587;SDS011;10956;48.878;13.316;2022-07-17T04:07:45;1.50;;;1.40;;
21587;SDS011;10956;48.878;13.316;2022-07-17T04:10:11;1.77;;;1.30;;
21587;SDS011;10956;48.878;13.316;2022-07-17T04:12:38;1.60;;;1.50;;
21587;SDS011;10956;48.878;13.316;2022-07-17T04:15:04;2.00;;;1.40;;
21587;SDS011;10956;48.878;13.316;2022-07-17T04:17:30;1.30;;;1.10;;
21587;SDS011;10956;48.878;13.316;2022-07-17T04:19:55;1.90;;;1.63;;
21587;SDS011;10956;48.878;13.316;2022-07-17T04:22:21;1.50;;;1.40;;
21587;SDS011;10956;48.878;13.316;2022-07-17T04:24:46;1.60;;;1.40;;
21587;SDS011;10956;48.878;13.316;2022-07-17T04:27:12;1.50;;;1.40;;
21587;SDS011;10956;48.878;13.316;2022-07-17T04:29:37;1.50;;;1.40;;
21587;SDS011;10956;48.878;13.316;2022-07-17T04:32:04;2.33;;;1.53;;
21587;SDS011;10956;48.878;13.316;2022-07-17T04:34:30;2.77;;;1.37;;
21587;SDS011;10956;48.878;13.316;2022-07-17T04:36:57;1.30;;;1.20;;
21587;SDS011;10956;48.878;13.316;2022-07-17T04:39:23;1.50;;;1.40;;
21587;SDS011;10956;48.878;13.316;2022-07-17T04:41:49;2.00;;;1.20;;
21587;SDS011;10956;48.878;13.316;2022-07-17T04:44:15;1.83;;;1.40;;
21587;SDS011;10956;48.878;13.316;2022-07-17T04:46:41;1.20;;;1.10;;
21587;SDS011;10956;48.878;13.316;2022-07-17T04:49:06;1.33;;;1.10;;
21587;SDS011;10956;48.878;13.316;2022-07-17T04:51:31;1.37;;;1.27;;
21587;SDS011;10956;48.878;13.316;2022-07-17T04:53:57;1.90;;;1.40;;
21587;SDS011;10956;48.878;13.316;2022-07-17T04:56:22;1.40;;;1.30;;
21587;SDS011;10956;48.878;13.316;2022-07-17T04:58:48;1.37;;;1.20;;
21587;SDS011;10956;48.878;13.316;2022-07-17T05:01:13;1.10;;;1.00;;
21587;SDS011;10956;48.878;13.316;2022-07-17T05:03:39;1.50;;;1.17;;
21587;SDS011;10956;48.878;13.316;2022-07-17T05:06:04;2.10;;;1.40;;
21587;SDS011;10956;48.878;13.316;2022-07-17T05:08:31;1.40;;;1.30;;
21587;SDS011;10956;48.878;13.316;2022-07-17T05:10:56;1.53;;;1.37;;
21587;SDS011;10956;48.878;13.316;2022-07-17T05:13:22;1.50;;;1.40;;
21587;SDS011;10956;48.878;13.316;2022-07-17T05:15:47;1.43;;;1.33;;
21587;SDS011;10956;48.878;13.316;2022-07-17T05:18:14;1.50;;;1.37;;
21587;SDS011;10956;48.878;13.316;2022-07-17T05:20:40;1.67;;;1.27;;
21587;SDS011;10956;48.878;13.316;2022-07-17T05:23:06;2.40;;;1.73;;
21587;SDS011;10956;48.878;13.316;2022-07-17T05:25:31;2.00;;;1.87;;
21587;SDS011;10956;48.878;13.316;2022-07-17T05:27:57;1.90;;;1.70;;
21587;SDS011;10956;48.878;13.316;2022-07-17T05:30:26;1.50;;;1.40;;
21587;SDS011;10956;48.878;13.316;2022-07-17T05:32:54;1.20;;;1.13;;
21587;SDS011;10956;48.878;13.316;2022-07-17T05:35:19;4.60;;;1.60;;
21587;SDS011;10956;48.878;13.316;2022-07-17T05:37:45;2.00;;;1.30;;
21587;SDS011;10956;48.878;13.316;2022-07-17T05:40:11;1.30;;;1.10;;
21587;SDS011;10956;48.878;13.316;2022-07-17T05:42:36;1.40;;;1.30;;
21587;SDS011;10956;48.878;13.316;2022-07-17T05:45:02;1.60;;;1.50;;
21587;SDS011;10956;48.878;13.316;2022-07-17T05:47:29;2.40;;;1.60;;
21587;SDS011;10956;48.878;13.316;2022-07-17T05:49:54;1.20;;;1.10;;
21587;SDS011;10956;48.878;13.316;2022-07-17T05:52:20;1.97;;;1.30;;
21587;SDS011;10956;48.878;13.316;2022-07-17T05:54:46;1.40;;;1.30;;
21587;SDS011;10956;48.878;13.316;2022-07-17T05:57:12;1.73;;;1.30;;
21587;SDS011;10956;48.878;13.316;2022-07-17T05:59:38;1.37;;;1.27;;
21587;SDS011;10956;48.878;13.316;2022-07-17T06:02:04;1.40;;;1.30;;
21587;SDS011;10956;48.878;13.316;2022-07-17T06:04:30;1.57;;;1.40;;
21587;SDS011;10956;48.878;13.316;2022-07-17T06:06:55;2.30;;;1.07;;
21587;SDS011;10956;48.878;13.316;2022-07-17T06:09:20;1.03;;;0.97;;
21587;SDS011;10956;48.878;13.316;2022-07-17T06:11:46;1.33;;;1.10;;
21587;SDS011;10956;48.878;13.316;2022-07-17T06:14:11;1.40;;;1.30;;
21587;SDS011;10956;48.878;13.316;2022-07-17T06:16:36;1.90;;;1.50;;
21587;SDS011;10956;48.878;13.316;2022-07-17T06:19:02;1.57;;;1.27;;
21587;SDS011;10956;48.878;13.316;2022-07-17T06:21:27;1.57;;;1.30;;
21587;SDS011;10956;48.878;13.316;2022-07-17T06:23:53;1.80;;;1.20;;
21587;SDS011;10956;48.878;13.316;2022-07-17T06:26:18;1.57;;;1.30;;
21587;SDS011;10956;48.878;13.316;2022-07-17T06:28:47;1.40;;;1.13;;
21587;SDS011;10956;48.878;13.316;2022-07-17T06:31:12;1.93;;;1.10;;
21587;SDS011;10956;48.878;13.316;2022-07-17T06:33:38;1.40;;;1.30;;
21587;SDS011;10956;48.878;13.316;2022-07-17T06:36:04;1.20;;;1.10;;
21587;SDS011;10956;48.878;13.316;2022-07-17T06:38:29;1.80;;;1.27;;
21587;SDS011;10956;48.878;13.316;2022-07-17T06:40:55;2.33;;;1.33;;
21587;SDS011;10956;48.878;13.316;2022-07-17T06:43:20;1.83;;;1.50;;
21587;SDS011;10956;48.878;13.316;2022-07-17T06:45:45;1.20;;;1.10;;
21587;SDS011;10956;48.878;13.316;2022-07-17T06:48:11;1.70;;;1.00;;
21587;SDS011;10956;48.878;13.316;2022-07-17T06:50:36;1.40;;;1.30;;
21587;SDS011;10956;48.878;13.316;2022-07-17T06:53:02;1.20;;;1.10;;
21587;SDS011;10956;48.878;13.316;2022-07-17T06:55:28;1.27;;;1.10;;
21587;SDS011;10956;48.878;13.316;2022-07-17T06:57:53;3.43;;;1.27;;
21587;SDS011;10956;48.878;13.316;2022-07-17T07:00:18;19.17;;;2.33;;
21587;SDS011;10956;48.878;13.316;2022-07-17T07:02:44;3.97;;;1.40;;
21587;SDS011;10956;48.878;13.316;2022-07-17T07:05:10;1.40;;;1.30;;
21587;SDS011;10956;48.878;13.316;2022-07-17T07:07:35;1.30;;;1.20;;
21587;SDS011;10956;48.878;13.316;2022-07-17T07:10:02;1.60;;;1.10;;
21587;SDS011;10956;48.878;13.316;2022-07-17T07:12:28;1.30;;;1.10;;
21587;SDS011;10956;48.878;13.316;2022-07-17T07:14:54;1.03;;;0.97;;
21587;SDS011;10956;48.878;13.316;2022-07-17T07:17:19;0.90;;;0.90;;
21587;SDS011;10956;48.878;13.316;2022-07-17T07:19:45;2.80;;;1.20;;
21587;SDS011;10956;48.878;13.316;2022-07-17T07:22:10;1.20;;;1.10;;
21587;SDS011;10956;48.878;13.316;2022-07-17T07:24:36;1.20;;;1.10;;
21587;SDS011;10956;48.878;13.316;2022-07-17T07:27:01;1.67;;;1.10;;
21587;SDS011;10956;48.878;13.316;2022-07-17T07:29:27;1.47;;;1.30;;
21587;SDS011;10956;48.878;13.316;2022-07-17T07:31:52;1.67;;;1.13;;
21587;SDS011;10956;48.878;13.316;2022-07-17T07:34:18;1.63;;;1.07;;
21587;SDS011;10956;48.878;13.316;2022-07-17T07:36:43;1.17;;;1.03;;
21587;SDS011;10956;48.878;13.316;2022-07-17T07:39:08;1.43;;;1.20;;
21587;SDS011;10956;48.878;13.316;2022-07-17T07:41:34;1.10;;;1.00;;
21587;SDS011;10956;48.878;13.316;2022-07-17T07:43:59;1.07;;;0.90;;
21587;SDS011;10956;48.878;13.316;2022-07-17T07:46:25;1.00;;;1.00;;
21587;SDS011;10956;48.878;13.316;2022-07-17T07:48:50;1.60;;;1.27;;
21587;SDS011;10956;48.878;13.316;2022-07-17T07:51:16;1.00;;;0.90;;
21587;SDS011;10956;48.878;13.316;2022-07-17T07:53:41;2.43;;;1.20;;
21587;SDS011;10956;48.878;13.316;2022-07-17T07:56:07;1.23;;;1.10;;
21587;SDS011;10956;48.878;13.316;2022-07-17T07:58:32;1.10;;;1.00;;
21587;SDS011;10956;48.878;13.316;2022-07-17T08:00:58;0.97;;;0.97;;
21587;SDS011;10956;48.878;13.316;2022-07-17T08:03:23;2.37;;;1.33;;
21587;SDS011;10956;48.878;13.316;2022-07-17T08:05:49;1.33;;;1.10;;
21587;SDS011;10956;48.878;13.316;2022-07-17T08:08:15;2.20;;;0.97;;
21587;SDS011;10956;48.878;13.316;2022-07-17T08:10:41;1.23;;;0.90;;
21587;SDS011;10956;48.878;13.316;2022-07-17T08:13:06;1.20;;;1.10;;
21587;SDS011;10956;48.878;13.316;2022-07-17T08:15:33;1.10;;;1.00;;
21587;SDS011;10956;48.878;13.316;2022-07-17T08:17:58;1.27;;;1.17;;
21587;SDS011;10956;48.878;13.316;2022-07-17T08:20:24;2.00;;;1.17;;
21587;SDS011;10956;48.878;13.316;2022-07-17T08:22:50;2.67;;;1.40;;
21587;SDS011;10956;48.878;13.316;2022-07-17T08:25:15;1.70;;;1.20;;
21587;SDS011;10956;48.878;13.316;2022-07-17T08:27:42;1.20;;;1.10;;
21587;SDS011;10956;48.878;13.316;2022-07-17T08:30:09;1.27;;;1.17;;
21587;SDS011;10956;48.878;13.316;2022-07-17T08:32:37;1.07;;;0.97;;
21587;SDS011;10956;48.878;13.316;2022-07-17T08:35:03;0.90;;;0.90;;
21587;SDS011;10956;48.878;13.316;2022-07-17T08:37:29;0.90;;;0.90;;
21587;SDS011;10956;48.878;13.316;2022-07-17T08:39:55;1.23;;;1.10;;
21587;SDS011;10956;48.878;13.316;2022-07-17T08:42:21;2.07;;;1.10;;
21587;SDS011;10956;48.878;13.316;2022-07-17T08:44:46;1.03;;;1.03;;
21587;SDS011;10956;48.878;13.316;2022-07-17T08:47:12;1.07;;;1.00;;
21587;SDS011;10956;48.878;13.316;2022-07-17T08:49:48;1.10;;;1.00;;
21587;SDS011;10956;48.878;13.316;2022-07-17T08:52:14;1.17;;;1.07;;
21587;SDS011;10956;48.878;13.316;2022-07-17T08:54:40;1.10;;;1.00;;
21587;SDS011;10956;48.878;13.316;2022-07-17T08:57:06;1.27;;;1.10;;
21587;SDS011;10956;48.878;13.316;2022-07-17T08:59:34;1.53;;;1.00;;
21587;SDS011;10956;48.878;13.316;2022-07-17T09:01:59;1.60;;;1.20;;
21587;SDS011;10956;48.878;13.316;2022-07-17T09:04:25;1.20;;;1.10;;
21587;SDS011;10956;48.878;13.316;2022-07-17T09:07:03;1.00;;;0.90;;
21587;SDS011;10956;48.878;13.316;2022-07-17T09:09:30;1.20;;;1.10;;
21587;SDS011;10956;48.878;13.316;2022-07-17T09:11:57;0.93;;;0.93;;
21587;SDS011;10956;48.878;13.316;2022-07-17T09:14:39;1.03;;;0.83;;
21587;SDS011;10956;48.878;13.316;2022-07-17T09:17:07;1.10;;;1.00;;
21587;SDS011;10956;48.878;13.316;2022-07-17T09:19:35;1.27;;;0.90;;
21587;SDS011;10956;48.878;13.316;2022-07-17T09:22:10;1.43;;;0.97;;
21587;SDS011;10956;48.878;13.316;2022-07-17T09:24:39;1.77;;;1.20;;
21587;SDS011;10956;48.878;13.316;2022-07-17T09:29:51;1.20;;;0.90;;
21587;SDS011;10956;48.878;13.316;2022-07-17T09:32:40;1.30;;;1.20;;
21587;SDS011;10956;48.878;13.316;2022-07-17T09:35:08;1.50;;;1.00;;
21587;SDS011;10956;48.878;13.316;2022-07-17T09:37:35;1.20;;;1.10;;
21587;SDS011;10956;48.878;13.316;2022-07-17T09:40:01;1.77;;;1.13;;
21587;SDS011;10956;48.878;13.316;2022-07-17T09:42:31;1.20;;;1.10;;
21587;SDS011;10956;48.878;13.316;2022-07-17T09:45:07;1.07;;;1.03;;
21587;SDS011;10956;48.878;13.316;2022-07-17T09:47:36;1.47;;;1.30;;
21587;SDS011;10956;48.878;13.316;2022-07-17T09:50:04;1.13;;;1.00;;
21587;SDS011;10956;48.878;13.316;2022-07-17T09:52:33;2.10;;;1.27;;
21587;SDS011;10956;48.878;13.316;2022-07-17T09:55:00;2.20;;;1.00;;
21587;SDS011;10956;48.878;13.316;2022-07-17T09:57:31;1.77;;;0.90;;
21587;SDS011;10956;48.878;13.316;2022-07-17T09:59:59;1.00;;;0.90;;
21587;SDS011;10956;48.878;13.316;2022-07-17T10:02:37;1.20;;;0.97;;
21587;SDS011;10956;48.878;13.316;2022-07-17T10:05:05;10.53;;;1.50;;
21587;SDS011;10956;48.878;13.316;2022-07-17T10:07:32;2.60;;;1.30;;
21587;SDS011;10956;48.878;13.316;2022-07-17T10:09:59;1.00;;;0.90;;
21587;SDS011;10956;48.878;13.316;2022-07-17T10:12:25;1.07;;;0.97;;
21587;SDS011;10956;48.878;13.316;2022-07-17T10:14:51;1.10;;;1.00;;
21587;SDS011;10956;48.878;13.316;2022-07-17T10:17:19;1.73;;;0.90;;
21587;SDS011;10956;48.878;13.316;2022-07-17T10:19:50;1.20;;;1.10;;
21587;SDS011;10956;48.878;13.316;2022-07-17T10:22:18;1.50;;;1.20;;
21587;SDS011;10956;48.878;13.316;2022-07-17T10:24:52;1.50;;;1.13;;
21587;SDS011;10956;48.878;13.316;2022-07-17T10:27:25;0.90;;;0.90;;
21587;SDS011;10956;48.878;13.316;2022-07-17T10:32:28;1.27;;;0.87;;
21587;SDS011;10956;48.878;13.316;2022-07-17T10:34:59;1.43;;;1.00;;
21587;SDS011;10956;48.878;13.316;2022-07-17T10:40:10;0.80;;;0.80;;
21587;SDS011;10956;48.878;13.316;2022-07-17T10:42:46;1.07;;;0.90;;
21587;SDS011;10956;48.878;13.316;2022-07-17T10:45:17;0.80;;;0.80;;
21587;SDS011;10956;48.878;13.316;2022-07-17T10:47:50;0.93;;;0.90;;
21587;SDS011;10956;48.878;13.316;2022-07-17T10:50:20;1.73;;;0.93;;
21587;SDS011;10956;48.878;13.316;2022-07-17T10:53:01;0.90;;;0.90;;
21587;SDS011;10956;48.878;13.316;2022-07-17T10:55:30;1.90;;;1.10;;
21587;SDS011;10956;48.878;13.316;2022-07-17T10:57:57;0.90;;;0.90;;
21587;SDS011;10956;48.878;13.316;2022-07-17T11:00:23;1.07;;;0.93;;
21587;SDS011;10956;48.878;13.316;2022-07-17T11:02:49;1.00;;;0.77;;
21587;SDS011;10956;48.878;13.316;2022-07-17T11:05:14;0.80;;;0.80;;
21587;SDS011;10956;48.878;13.316;2022-07-17T11:07:54;1.00;;;0.93;;
21587;SDS011;10956;48.878;13.316;2022-07-17T11:10:23;1.37;;;1.00;;
21587;SDS011;10956;48.878;13.316;2022-07-17T11:12:50;1.40;;;1.00;;
21587;SDS011;10956;48.878;13.316;2022-07-17T11:15:17;0.80;;;0.80;;
21587;SDS011;10956;48.878;13.316;2022-07-17T11:17:52;1.00;;;0.90;;
21587;SDS011;10956;48.878;13.316;2022-07-17T11:20:17;1.13;;;0.90;;
21587;SDS011;10956;48.878;13.316;2022-07-17T11:22:43;0.90;;;0.90;;
21587;SDS011;10956;48.878;13.316;2022-07-17T11:25:09;0.90;;;0.80;;
21587;SDS011;10956;48.878;13.316;2022-07-17T11:27:36;1.10;;;1.00;;
21587;SDS011;10956;48.878;13.316;2022-07-17T11:30:03;1.23;;;1.10;;
21587;SDS011;10956;48.878;13.316;2022-07-17T11:32:37;2.70;;;1.10;;
21587;SDS011;10956;48.878;13.316;2022-07-17T11:35:19;1.27;;;0.80;;
21587;SDS011;10956;48.878;13.316;2022-07-17T11:37:48;1.17;;;1.00;;
21587;SDS011;10956;48.878;13.316;2022-07-17T11:40:14;0.80;;;0.80;;
21587;SDS011;10956;48.878;13.316;2022-07-17T11:42:40;0.80;;;0.80;;
21587;SDS011;10956;48.878;13.316;2022-07-17T11:45:05;0.90;;;0.90;;
21587;SDS011;10956;48.878;13.316;2022-07-17T11:47:31;1.07;;;0.97;;
21587;SDS011;10956;48.878;13.316;2022-07-17T11:50:04;1.23;;;0.90;;
21587;SDS011;10956;48.878;13.316;2022-07-17T11:52:48;1.10;;;1.00;;
21587;SDS011;10956;48.878;13.316;2022-07-17T11:55:15;1.07;;;0.97;;
21587;SDS011;10956;48.878;13.316;2022-07-17T11:57:44;1.73;;;1.10;;
21587;SDS011;10956;48.878;13.316;2022-07-17T12:00:12;1.20;;;1.10;;
21587;SDS011;10956;48.878;13.316;2022-07-17T12:02:40;1.20;;;1.10;;
21587;SDS011;10956;48.878;13.316;2022-07-17T12:05:05;0.80;;;0.80;;
21587;SDS011;10956;48.878;13.316;2022-07-17T12:10:16;8.70;;;2.50;;
21587;SDS011;10956;48.878;13.316;2022-07-17T12:12:51;8.47;;;3.07;;
21587;SDS011;10956;48.878;13.316;2022-07-17T12:15:21;8.23;;;3.27;;
21587;SDS011;10956;48.878;13.316;2022-07-17T12:17:59;5.10;;;2.50;;
21587;SDS011;10956;48.878;13.316;2022-07-17T12:20:25;1.90;;;1.47;;
21587;SDS011;10956;48.878;13.316;2022-07-17T12:23:04;1.20;;;1.10;;
21587;SDS011;10956;48.878;13.316;2022-07-17T12:25:29;1.07;;;0.87;;
21587;SDS011;10956;48.878;13.316;2022-07-17T12:27:55;1.00;;;0.90;;
21587;SDS011;10956;48.878;13.316;2022-07-17T12:30:20;1.20;;;0.93;;
21587;SDS011;10956;48.878;13.316;2022-07-17T12:32:46;1.20;;;0.90;;
21587;SDS011;10956;48.878;13.316;2022-07-17T12:35:12;1.53;;;1.00;;
21587;SDS011;10956;48.878;13.316;2022-07-17T12:37:38;1.23;;;0.87;;
21587;SDS011;10956;48.878;13.316;2022-07-17T12:40:04;1.00;;;0.97;;
21587;SDS011;10956;48.878;13.316;2022-07-17T12:42:30;1.03;;;1.00;;
21587;SDS011;10956;48.878;13.316;2022-07-17T12:44:56;1.03;;;1.00;;
21587;SDS011;10956;48.878;13.316;2022-07-17T12:47:21;0.93;;;0.90;;
21587;SDS011;10956;48.878;13.316;2022-07-17T12:49:47;0.80;;;0.80;;
21587;SDS011;10956;48.878;13.316;2022-07-17T12:52:12;1.27;;;1.17;;
21587;SDS011;10956;48.878;13.316;2022-07-17T12:54:38;1.63;;;1.20;;
21587;SDS011;10956;48.878;13.316;2022-07-17T12:57:04;1.00;;;0.90;;
21587;SDS011;10956;48.878;13.316;2022-07-17T12:59:29;1.00;;;1.00;;
21587;SDS011;10956;48.878;13.316;2022-07-17T13:01:55;1.07;;;0.97;;
21587;SDS011;10956;48.878;13.316;2022-07-17T13:04:20;1.13;;;1.00;;
21587;SDS011;10956;48.878;13.316;2022-07-17T13:06:46;1.33;;;1.10;;
21587;SDS011;10956;48.878;13.316;2022-07-17T13:09:11;1.30;;;0.90;;
21587;SDS011;10956;48.878;13.316;2022-07-17T13:11:39;1.10;;;0.90;;
21587;SDS011;10956;48.878;13.316;2022-07-17T13:14:06;0.87;;;0.87;;
21587;SDS011;10956;48.878;13.316;2022-07-17T13:16:32;1.07;;;0.80;;
21587;SDS011;10956;48.878;13.316;2022-07-17T13:18:57;0.90;;;0.90;;
21587;SDS011;10956;48.878;13.316;2022-07-17T13:21:24;1.00;;;1.00;;
21587;SDS011;10956;48.878;13.316;2022-07-17T13:23:49;4.07;;;1.07;;
21587;SDS011;10956;48.878;13.316;2022-07-17T13:26:15;1.47;;;0.90;;
21587;SDS011;10956;48.878;13.316;2022-07-17T13:28:41;0.70;;;0.70;;
21587;SDS011;10956;48.878;13.316;2022-07-17T13:31:06;1.23;;;1.13;;
21587;SDS011;10956;48.878;13.316;2022-07-17T13:33:31;0.90;;;0.90;;
21587;SDS011;10956;48.878;13.316;2022-07-17T13:35:57;0.80;;;0.80;;
21587;SDS011;10956;48.878;13.316;2022-07-17T13:38:22;2.70;;;1.10;;
21587;SDS011;10956;48.878;13.316;2022-07-17T13:40:48;1.10;;;1.00;;
21587;SDS011;10956;48.878;13.316;2022-07-17T13:43:14;1.20;;;1.10;;
21587;SDS011;10956;48.878;13.316;2022-07-17T13:45:40;1.17;;;0.90;;
21587;SDS011;10956;48.878;13.316;2022-07-17T13:48:06;1.10;;;1.00;;
21587;SDS011;10956;48.878;13.316;2022-07-17T13:50:31;1.33;;;1.03;;
21587;SDS011;10956;48.878;13.316;2022-07-17T13:52:56;0.90;;;0.87;;
21587;SDS011;10956;48.878;13.316;2022-07-17T13:55:22;1.17;;;1.03;;
21587;SDS011;10956;48.878;13.316;2022-07-17T13:57:48;0.97;;;0.93;;
21587;SDS011;10956;48.878;13.316;2022-07-17T14:00:14;1.10;;;1.00;;
21587;SDS011;10956;48.878;13.316;2022-07-17T14:02:40;1.30;;;1.20;;
21587;SDS011;10956;48.878;13.316;2022-07-17T14:05:06;1.07;;;1.00;;
21587;SDS011;10956;48.878;13.316;2022-07-17T14:07:33;1.20;;;1.10;;
21587;SDS011;10956;48.878;13.316;2022-07-17T14:09:59;1.10;;;1.00;;
21587;SDS011;10956;48.878;13.316;2022-07-17T14:12:25;1.50;;;0.90;;
21587;SDS011;10956;48.878;13.316;2022-07-17T14:14:50;0.80;;;0.80;;
21587;SDS011;10956;48.878;13.316;2022-07-17T14:17:16;1.10;;;1.00;;
21587;SDS011;10956;48.878;13.316;2022-07-17T14:19:44;2.10;;;1.10;;
21587;SDS011;10956;48.878;13.316;2022-07-17T14:22:10;1.10;;;1.00;;
21587;SDS011;10956;48.878;13.316;2022-07-17T14:24:35;0.80;;;0.80;;
21587;SDS011;10956;48.878;13.316;2022-07-17T14:27:01;1.20;;;1.07;;
21587;SDS011;10956;48.878;13.316;2022-07-17T14:29:26;0.87;;;0.87;;
21587;SDS011;10956;48.878;13.316;2022-07-17T14:31:52;1.03;;;1.00;;
21587;SDS011;10956;48.878;13.316;2022-07-17T14:34:17;0.90;;;0.90;;
21587;SDS011;10956;48.878;13.316;2022-07-17T14:36:43;1.53;;;1.00;;
21587;SDS011;10956;48.878;13.316;2022-07-17T14:39:09;1.83;;;1.00;;
21587;SDS011;10956;48.878;13.316;2022-07-17T14:41:34;0.80;;;0.80;;